createdAt,value
2023-01-09T00:02:02.840Z,6.95
2023-01-09T00:04:29.448Z,6.43
2023-01-09T00:06:56.281Z,6.93
2023-01-09T00:09:23.423Z,7.50
2023-01-09T00:11:50.170Z,5.97
2023-01-09T00:14:17.233Z,5.70
2023-01-09T00:16:44.030Z,5.38
2023-01-09T00:19:10.903Z,5.03
2023-01-09T00:21:37.792Z,4.93
2023-01-09T00:24:04.971Z,5.97
2023-01-09T00:26:31.651Z,6.25
2023-01-09T00:28:58.421Z,6.80
2023-01-09T00:31:25.037Z,6.15
2023-01-09T00:34:02.608Z,5.80
2023-01-09T00:36:29.515Z,5.53
2023-01-09T00:38:56.263Z,4.88
2023-01-09T00:41:35.167Z,5.43
2023-01-09T00:44:06.999Z,5.18
2023-01-09T00:46:34.735Z,6.00
2023-01-09T00:49:02.055Z,5.15
2023-01-09T00:51:28.671Z,5.97
2023-01-09T00:53:55.360Z,6.07
2023-01-09T00:56:21.996Z,5.90
2023-01-09T00:58:48.718Z,6.20
2023-01-09T01:01:15.425Z,6.55
2023-01-09T01:03:42.216Z,5.93
2023-01-09T01:06:27.436Z,7.10
2023-01-09T01:08:55.942Z,7.00
2023-01-09T01:11:22.876Z,7.13
2023-01-09T01:13:49.674Z,6.43
2023-01-09T01:16:18.306Z,7.18
2023-01-09T01:18:45.148Z,7.32
2023-01-09T01:21:13.107Z,6.70
2023-01-09T01:23:39.966Z,6.95
2023-01-09T01:26:11.535Z,6.90
2023-01-09T01:28:38.233Z,8.40
2023-01-09T01:31:05.110Z,7.60
2023-01-09T01:33:32.210Z,6.40
2023-01-09T01:36:06.301Z,7.43
2023-01-09T01:38:33.146Z,7.05
2023-01-09T01:40:59.959Z,7.00
2023-01-09T01:43:26.606Z,7.03
2023-01-09T01:45:53.344Z,7.25
2023-01-09T01:48:28.237Z,8.30
2023-01-09T01:51:05.289Z,6.80
2023-01-09T01:53:42.063Z,6.30
2023-01-09T01:56:26.763Z,6.80
2023-01-09T01:59:06.079Z,6.47
2023-01-09T02:01:33.845Z,5.50
2023-01-09T02:04:01.219Z,5.63
2023-01-09T02:06:28.596Z,5.78
2023-01-09T02:08:55.455Z,5.32
2023-01-09T02:11:22.513Z,5.97
2023-01-09T02:13:49.178Z,6.53
2023-01-09T02:16:23.344Z,6.30
2023-01-09T02:18:59.139Z,7.20
2023-01-09T02:21:40.598Z,7.18
2023-01-09T02:24:33.284Z,6.25
2023-01-09T02:27:14.513Z,6.30
2023-01-09T02:29:59.742Z,7.03
2023-01-09T02:32:43.235Z,6.97
2023-01-09T02:35:37.562Z,5.78
2023-01-09T02:38:15.696Z,6.80
2023-01-09T02:40:47.752Z,6.72
2023-01-09T02:43:14.306Z,6.40
2023-01-09T02:45:41.161Z,7.50
2023-01-09T02:48:12.244Z,7.15
2023-01-09T02:50:50.238Z,7.00
2023-01-09T02:53:22.873Z,6.53
2023-01-09T02:56:03.240Z,5.97
2023-01-09T02:58:54.739Z,5.45
2023-01-09T03:01:57.008Z,4.13
2023-01-09T03:04:50.746Z,6.40
2023-01-09T03:07:27.242Z,7.35
2023-01-09T03:09:58.921Z,6.85
2023-01-09T03:12:26.469Z,6.60
2023-01-09T03:14:54.994Z,5.70
2023-01-09T03:17:48.756Z,6.75
2023-01-09T03:20:18.092Z,6.00
2023-01-09T03:23:04.502Z,6.90
2023-01-09T03:25:31.260Z,6.60
2023-01-09T03:27:59.686Z,6.03
2023-01-09T03:30:26.810Z,7.55
2023-01-09T03:32:53.547Z,5.90
2023-01-09T03:35:20.132Z,6.05
2023-01-09T03:37:46.795Z,6.50
2023-01-09T03:40:13.462Z,6.35
2023-01-09T03:42:40.127Z,6.63
2023-01-09T03:45:07.191Z,6.15
2023-01-09T03:47:33.913Z,5.78
2023-01-09T03:50:00.592Z,6.70
2023-01-09T03:52:27.268Z,5.75
2023-01-09T03:54:53.955Z,6.35
2023-01-09T03:57:20.537Z,6.07
2023-01-09T03:59:47.261Z,5.68
2023-01-09T04:02:14.091Z,6.07
2023-01-09T04:04:40.781Z,6.00
2023-01-09T04:07:07.407Z,5.68
2023-01-09T04:09:34.093Z,5.40
2023-01-09T04:12:00.692Z,5.53
2023-01-09T04:14:27.420Z,6.00
2023-01-09T04:16:54.066Z,6.97
2023-01-09T04:19:20.625Z,6.18
2023-01-09T04:21:47.404Z,7.78
2023-01-09T04:24:14.119Z,7.55
2023-01-09T04:26:40.743Z,6.10
2023-01-09T04:29:07.386Z,6.60
2023-01-09T04:31:34.064Z,5.38
2023-01-09T04:34:00.810Z,6.35
2023-01-09T04:36:27.577Z,6.20
2023-01-09T04:38:54.292Z,6.53
2023-01-09T04:41:39.341Z,4.63
2023-01-09T04:44:06.191Z,4.50
2023-01-09T04:46:32.912Z,4.57
2023-01-09T04:48:59.614Z,3.88
2023-01-09T04:51:26.199Z,6.82
2023-01-09T04:53:52.925Z,8.93
2023-01-09T04:56:19.507Z,10.32
2023-01-09T04:58:46.217Z,6.50
2023-01-09T05:01:12.950Z,6.53
2023-01-09T05:03:39.607Z,8.40
2023-01-09T05:06:06.494Z,6.13
2023-01-09T05:08:33.179Z,7.30
2023-01-09T05:11:00.615Z,8.32
2023-01-09T05:13:28.122Z,6.72
2023-01-09T05:15:54.809Z,7.72
2023-01-09T05:18:21.397Z,6.80
2023-01-09T05:20:48.054Z,6.57
2023-01-09T05:23:14.725Z,6.38
2023-01-09T05:25:41.478Z,7.90
2023-01-09T05:28:08.182Z,7.07
2023-01-09T05:30:34.844Z,10.55
2023-01-09T05:33:01.519Z,8.15
2023-01-09T05:35:28.158Z,7.28
2023-01-09T05:37:55.009Z,7.05
2023-01-09T05:40:23.157Z,8.70
2023-01-09T05:42:53.302Z,10.55
2023-01-09T05:45:19.921Z,7.60
2023-01-09T05:47:46.650Z,7.18
2023-01-09T05:50:13.469Z,6.93
2023-01-09T05:52:40.247Z,8.00
2023-01-09T05:55:07.627Z,7.60
2023-01-09T05:57:34.296Z,8.15
2023-01-09T06:00:00.975Z,6.88
2023-01-09T06:02:27.773Z,7.25
2023-01-09T06:04:54.474Z,10.90
2023-01-09T06:07:23.358Z,8.88
2023-01-09T06:09:50.120Z,6.22
2023-01-09T06:12:16.744Z,6.15
2023-01-09T06:14:43.507Z,5.60
2023-01-09T06:17:11.108Z,6.28
2023-01-09T06:19:37.762Z,5.80
2023-01-09T06:22:04.423Z,5.80
2023-01-09T06:24:31.021Z,5.13
2023-01-09T06:26:57.696Z,5.50
2023-01-09T06:29:24.312Z,5.20
2023-01-09T06:31:50.914Z,6.30
2023-01-09T06:34:17.560Z,5.93
2023-01-09T06:36:44.332Z,6.80
2023-01-09T06:39:10.905Z,7.10
2023-01-09T06:41:37.659Z,8.73
2023-01-09T06:44:04.333Z,11.77
2023-01-09T06:46:31.005Z,6.90
2023-01-09T06:48:57.641Z,6.90
2023-01-09T06:51:24.310Z,6.90
2023-01-09T06:53:50.940Z,7.15
2023-01-09T06:56:17.638Z,7.38
2023-01-09T06:58:44.414Z,9.20
2023-01-09T07:01:11.242Z,6.47
2023-01-09T07:03:38.040Z,7.43
2023-01-09T07:06:05.062Z,8.15
2023-01-09T07:08:31.750Z,6.63
2023-01-09T07:10:58.412Z,7.93
2023-01-09T07:13:25.034Z,8.25
2023-01-09T07:15:53.656Z,13.52
2023-01-09T07:18:20.570Z,13.07
2023-01-09T07:20:47.283Z,12.90
2023-01-09T07:23:14.154Z,10.85
2023-01-09T07:25:42.291Z,9.55
2023-01-09T07:28:09.045Z,11.77
2023-01-09T07:30:35.769Z,12.95
2023-01-09T07:33:03.986Z,9.63
2023-01-09T07:35:30.829Z,8.15
2023-01-09T07:37:57.546Z,7.53
2023-01-09T07:40:24.491Z,7.72
2023-01-09T07:42:53.407Z,8.57
2023-01-09T07:45:20.087Z,11.10
2023-01-09T07:47:46.721Z,19.92
2023-01-09T07:50:13.336Z,8.65
2023-01-09T07:52:40.008Z,10.45
2023-01-09T07:55:07.241Z,8.73
2023-01-09T07:57:33.911Z,7.78
2023-01-09T08:00:03.422Z,8.48
2023-01-09T08:02:30.135Z,14.77
2023-01-09T08:04:56.792Z,18.98
2023-01-09T08:07:23.377Z,13.13
2023-01-09T08:09:50.026Z,12.27
2023-01-09T08:12:16.700Z,9.93
2023-01-09T08:14:43.414Z,9.30
2023-01-09T08:17:11.705Z,10.15
2023-01-09T08:19:38.463Z,9.93
2023-01-09T08:22:05.191Z,9.63
2023-01-09T08:24:32.842Z,10.35
2023-01-09T08:26:59.982Z,11.70
2023-01-09T08:29:26.582Z,12.35
2023-01-09T08:31:53.273Z,9.00
2023-01-09T08:34:20.013Z,9.68
2023-01-09T08:36:46.735Z,9.80
2023-01-09T08:39:13.368Z,12.77
2023-01-09T08:41:58.612Z,13.70
2023-01-09T08:44:43.676Z,12.77
2023-01-09T08:47:10.362Z,13.43
2023-01-09T08:49:38.227Z,11.55
2023-01-09T08:52:05.418Z,12.90
2023-01-09T08:54:32.148Z,12.35
2023-01-09T08:56:58.876Z,12.13
2023-01-09T08:59:25.480Z,12.27
2023-01-09T09:01:52.256Z,13.10
2023-01-09T09:04:19.004Z,11.35
2023-01-09T09:06:45.691Z,13.35
2023-01-09T09:09:12.488Z,15.82
2023-01-09T09:11:39.175Z,15.45
2023-01-09T09:14:25.828Z,18.15
2023-01-09T09:16:53.112Z,14.70
2023-01-09T09:19:19.733Z,16.20
2023-01-09T09:21:46.461Z,11.43
2023-01-09T09:24:13.223Z,12.27
2023-01-09T09:26:39.984Z,16.55
2023-01-09T09:29:06.748Z,13.35
2023-01-09T09:31:33.500Z,15.95
2023-01-09T09:34:00.319Z,16.80
2023-01-09T09:36:26.958Z,13.77
2023-01-09T09:38:53.639Z,18.73
2023-01-09T09:41:44.672Z,18.77
2023-01-09T09:44:52.682Z,12.23
2023-01-09T09:47:43.278Z,23.10
2023-01-09T09:50:54.949Z,18.00
2023-01-09T09:53:29.621Z,13.57
2023-01-09T09:55:57.656Z,17.77
2023-01-09T09:58:36.618Z,13.05
2023-01-09T10:01:03.733Z,11.70
2023-01-09T10:03:55.120Z,10.90
2023-01-09T10:06:31.371Z,18.50
2023-01-09T10:09:06.315Z,13.23
2023-01-09T10:11:56.085Z,11.95
2023-01-09T10:14:24.668Z,13.30
2023-01-09T10:17:09.608Z,12.50
2023-01-09T10:19:57.968Z,10.60
2023-01-09T10:23:06.489Z,12.52
2023-01-09T10:25:47.990Z,10.07
2023-01-09T10:28:39.843Z,10.85
2023-01-09T10:31:22.559Z,11.30
2023-01-09T10:34:21.503Z,10.68
2023-01-09T10:37:19.341Z,15.75
2023-01-09T10:39:52.620Z,8.07
2023-01-09T10:42:22.389Z,12.27
2023-01-09T10:45:12.321Z,15.48
2023-01-09T10:47:39.323Z,15.48
2023-01-09T10:50:20.645Z,12.05
2023-01-09T10:52:47.470Z,52.42
2023-01-09T10:55:19.295Z,8.90
2023-01-09T10:57:58.653Z,18.15
2023-01-09T11:00:25.627Z,13.48
2023-01-09T11:02:52.845Z,13.90
2023-01-09T11:05:25.065Z,22.10
2023-01-09T11:08:09.106Z,12.02
2023-01-09T11:10:58.637Z,8.60
2023-01-09T11:13:33.205Z,9.18
2023-01-09T11:16:05.538Z,8.38
2023-01-09T11:18:37.961Z,7.78
2023-01-09T11:21:32.873Z,9.63
2023-01-09T11:24:28.693Z,11.40
2023-01-09T11:27:23.625Z,10.90
2023-01-09T11:30:09.729Z,8.20
2023-01-09T11:32:36.443Z,11.32
2023-01-09T11:35:36.069Z,8.98
2023-01-09T11:38:10.651Z,12.77
2023-01-09T11:40:51.264Z,9.75
2023-01-09T11:43:25.697Z,12.77
2023-01-09T11:46:01.036Z,12.38
2023-01-09T11:48:33.005Z,13.85
2023-01-09T11:51:01.419Z,19.27
2023-01-09T11:53:28.182Z,45.45
2023-01-09T11:56:02.136Z,51.25
2023-01-09T11:58:32.001Z,12.73
2023-01-09T12:01:18.119Z,13.73
2023-01-09T12:03:59.826Z,17.20
2023-01-09T12:06:31.787Z,14.68
2023-01-09T12:09:02.743Z,22.92
2023-01-09T12:11:40.930Z,28.33
2023-01-09T12:14:26.020Z,12.07
2023-01-09T12:16:56.583Z,13.25
2023-01-09T12:19:49.085Z,9.15
2023-01-09T12:22:44.392Z,20.63
2023-01-09T12:25:38.647Z,17.17
2023-01-09T12:28:11.322Z,34.50
2023-01-09T12:30:44.358Z,15.77
2023-01-09T12:33:30.764Z,27.30
2023-01-09T12:36:19.157Z,10.73
2023-01-09T12:39:10.379Z,10.38
2023-01-09T12:41:52.241Z,14.45
2023-01-09T12:44:39.223Z,8.60
2023-01-09T12:47:39.912Z,8.95
2023-01-09T12:50:09.704Z,12.10
2023-01-09T12:52:44.270Z,14.98
2023-01-09T12:55:22.108Z,9.60
2023-01-09T12:57:53.379Z,10.88
2023-01-09T13:00:32.507Z,11.27
2023-01-09T13:03:12.056Z,11.23
2023-01-09T13:05:50.051Z,13.48
2023-01-09T13:08:32.538Z,14.50
2023-01-09T13:11:21.676Z,13.43
2023-01-09T13:14:02.387Z,18.70
2023-01-09T13:16:33.255Z,13.10
2023-01-09T13:19:01.919Z,11.38
2023-01-09T13:21:28.552Z,9.25
2023-01-09T13:24:02.344Z,9.68
2023-01-09T13:26:37.517Z,8.82
2023-01-09T13:29:16.805Z,9.30
2023-01-09T13:32:15.865Z,9.57
2023-01-09T13:34:42.519Z,15.02
2023-01-09T13:37:26.138Z,20.33
2023-01-09T13:40:00.606Z,17.33
2023-01-09T13:42:36.443Z,10.48
2023-01-09T13:45:25.483Z,9.02
2023-01-09T13:48:19.907Z,12.30
2023-01-09T13:50:47.254Z,10.27
2023-01-09T13:53:20.004Z,10.27
2023-01-09T13:55:59.295Z,12.07
2023-01-09T13:58:55.308Z,12.35
2023-01-09T14:01:24.639Z,19.67
2023-01-09T14:04:09.726Z,13.15
2023-01-09T14:06:36.422Z,13.10
2023-01-09T14:09:19.606Z,15.00
2023-01-09T14:11:46.265Z,12.40
2023-01-09T14:14:25.444Z,13.93
2023-01-09T14:16:52.174Z,26.63
2023-01-09T14:19:23.485Z,11.98
2023-01-09T14:21:55.301Z,9.98
2023-01-09T14:24:26.835Z,17.45
2023-01-09T14:26:57.320Z,26.77
2023-01-09T14:29:38.500Z,15.95
2023-01-09T14:32:23.671Z,30.40
2023-01-09T14:34:56.069Z,22.40
2023-01-09T14:37:22.781Z,21.58
2023-01-09T14:39:49.495Z,25.75
2023-01-09T14:42:19.261Z,21.63
2023-01-09T14:44:56.092Z,29.20
2023-01-09T14:47:31.725Z,18.80
2023-01-09T14:50:27.372Z,20.02
2023-01-09T14:53:04.682Z,18.08
2023-01-09T14:55:50.925Z,24.52
2023-01-09T14:58:26.020Z,13.75
2023-01-09T15:00:59.820Z,12.73
2023-01-09T15:03:29.494Z,15.68
2023-01-09T15:05:56.150Z,10.00
2023-01-09T15:08:24.064Z,14.02
2023-01-09T15:10:51.427Z,17.17
2023-01-09T15:13:21.438Z,13.43
2023-01-09T15:15:48.286Z,11.38
2023-01-09T15:18:21.212Z,10.95
2023-01-09T15:20:52.755Z,10.63
2023-01-09T15:23:24.068Z,9.90
2023-01-09T15:25:50.860Z,11.23
2023-01-09T15:28:25.342Z,12.52
2023-01-09T15:31:16.966Z,11.82
2023-01-09T15:33:44.864Z,12.45
2023-01-09T15:36:31.541Z,13.30
2023-01-09T15:38:58.340Z,16.65
2023-01-09T15:41:45.014Z,15.25
2023-01-09T15:44:27.384Z,13.82
2023-01-09T15:46:57.698Z,13.43
2023-01-09T15:49:24.309Z,12.13
2023-01-09T15:51:51.042Z,11.40
2023-01-09T15:54:30.418Z,12.10
2023-01-09T15:57:25.014Z,11.35
2023-01-09T16:02:43.047Z,14.40
2023-01-09T16:05:15.920Z,15.65
2023-01-09T16:07:49.334Z,16.75
2023-01-09T16:10:34.353Z,13.80
2023-01-09T16:13:01.339Z,12.93
2023-01-09T16:15:29.063Z,15.25
2023-01-09T16:18:15.390Z,16.20
2023-01-09T16:20:42.376Z,13.95
2023-01-09T16:23:24.039Z,14.20
2023-01-09T16:25:50.817Z,11.10
2023-01-09T16:28:23.103Z,10.32
2023-01-09T16:30:55.760Z,17.05
2023-01-09T16:33:24.229Z,12.00
2023-01-09T16:35:51.294Z,10.98
2023-01-09T16:38:18.164Z,11.70
2023-01-09T16:41:23.271Z,11.82
2023-01-09T16:43:50.706Z,12.57
2023-01-09T16:46:21.189Z,19.77
2023-01-09T16:48:47.984Z,13.35
2023-01-09T16:51:16.509Z,12.65
2023-01-09T16:53:43.699Z,13.02
2023-01-09T16:56:22.164Z,11.68
2023-01-09T16:58:48.965Z,12.60
2023-01-09T17:01:15.882Z,10.98
2023-01-09T17:03:44.071Z,11.10
2023-01-09T17:06:24.373Z,12.05
2023-01-09T17:08:51.677Z,11.00
2023-01-09T17:11:22.984Z,14.77
2023-01-09T17:13:49.745Z,16.35
2023-01-09T17:16:19.693Z,12.63
2023-01-09T17:18:46.361Z,12.63
2023-01-09T17:21:20.909Z,18.02
2023-01-09T17:23:47.807Z,12.00
2023-01-09T17:26:39.013Z,12.25
2023-01-09T17:29:05.711Z,11.23
2023-01-09T17:31:32.406Z,11.20
2023-01-09T17:33:59.284Z,11.55
2023-01-09T17:36:32.140Z,11.65
2023-01-09T17:38:59.389Z,12.33
2023-01-09T17:41:27.720Z,12.02
2023-01-09T17:43:54.468Z,12.15
2023-01-09T17:46:34.939Z,12.20
2023-01-09T17:49:02.243Z,13.38
2023-01-09T17:51:29.433Z,11.48
2023-01-09T17:53:56.398Z,11.65
2023-01-09T17:56:24.820Z,11.45
2023-01-09T17:58:51.459Z,11.25
2023-01-09T18:01:18.182Z,12.20
2023-01-09T18:03:46.928Z,13.18
2023-01-09T18:06:13.761Z,12.35
2023-01-09T18:08:40.624Z,11.02
2023-01-09T18:11:08.957Z,12.35
2023-01-09T18:13:35.678Z,18.63
2023-01-09T18:16:02.411Z,59.85
2023-01-09T18:18:29.420Z,30.63
2023-01-09T18:20:56.284Z,27.02
2023-01-09T18:23:23.044Z,32.42
2023-01-09T18:25:49.656Z,44.03
2023-01-09T18:28:16.471Z,33.30
2023-01-09T18:30:47.800Z,52.05
2023-01-09T18:33:14.813Z,62.38
2023-01-09T18:35:42.260Z,43.80
2023-01-09T18:38:09.049Z,101.70
2023-01-09T18:40:37.018Z,68.45
2023-01-09T18:43:07.965Z,133.48
2023-01-09T18:45:34.719Z,41.22
2023-01-09T18:48:01.405Z,42.92
2023-01-09T18:50:28.019Z,101.90
2023-01-09T18:52:55.452Z,29.85
2023-01-09T18:55:22.046Z,69.88
2023-01-09T18:57:48.937Z,31.33
2023-01-09T19:00:15.894Z,19.75
2023-01-09T19:02:42.592Z,12.68
2023-01-09T19:05:09.425Z,15.15
2023-01-09T19:07:36.177Z,52.17
2023-01-09T19:10:02.804Z,42.28
2023-01-09T19:12:29.506Z,97.95
2023-01-09T19:14:56.145Z,77.57
2023-01-09T19:17:22.823Z,37.70
2023-01-09T19:19:50.100Z,119.28
2023-01-09T19:22:16.878Z,30.08
2023-01-09T19:24:43.562Z,21.70
2023-01-09T19:27:10.172Z,42.60
2023-01-09T19:29:37.037Z,69.18
2023-01-09T19:32:04.628Z,51.65
2023-01-09T19:34:31.377Z,31.77
2023-01-09T19:36:58.134Z,27.77
2023-01-09T19:39:24.778Z,15.32
2023-01-09T19:41:51.414Z,37.65
2023-01-09T19:44:19.070Z,23.45
2023-01-09T19:46:45.719Z,16.85
2023-01-09T19:49:12.339Z,31.55
2023-01-09T19:51:38.994Z,18.30
2023-01-09T19:54:08.626Z,23.80
2023-01-09T19:56:36.584Z,15.43
2023-01-09T19:59:03.951Z,19.92
2023-01-09T20:01:32.262Z,21.38
2023-01-09T20:04:04.290Z,17.15
2023-01-09T20:06:31.115Z,12.80
2023-01-09T20:08:59.024Z,13.40
2023-01-09T20:11:27.205Z,11.43
2023-01-09T20:13:55.609Z,11.57
2023-01-09T20:16:28.152Z,15.25
2023-01-09T20:18:57.585Z,13.70
2023-01-09T20:21:26.348Z,12.82
2023-01-09T20:23:54.535Z,14.23
2023-01-09T20:26:21.560Z,21.13
2023-01-09T20:28:48.209Z,11.35
2023-01-09T20:31:16.651Z,15.57
2023-01-09T20:33:43.826Z,12.73
2023-01-09T20:36:10.527Z,19.20
2023-01-09T20:38:37.673Z,22.77
2023-01-09T20:41:09.822Z,13.73
2023-01-09T20:43:36.498Z,12.68
2023-01-09T20:46:04.167Z,28.70
2023-01-09T20:48:30.988Z,16.27
2023-01-09T20:51:03.796Z,16.30
2023-01-09T20:53:30.437Z,18.38
2023-01-09T20:56:04.512Z,14.75
2023-01-09T20:58:31.090Z,14.40
2023-01-09T21:00:57.806Z,20.70
2023-01-09T21:03:24.405Z,10.98
2023-01-09T21:05:51.064Z,14.52
2023-01-09T21:08:18.016Z,11.70
2023-01-09T21:10:44.700Z,12.63
2023-01-09T21:13:11.329Z,12.57
2023-01-09T21:15:38.862Z,13.30
2023-01-09T21:18:05.815Z,10.20
2023-01-09T21:20:32.561Z,14.35
2023-01-09T21:22:59.282Z,13.38
2023-01-09T21:25:25.898Z,11.98
2023-01-09T21:27:52.673Z,11.35
2023-01-09T21:30:19.406Z,10.77
2023-01-09T21:32:46.143Z,10.77
2023-01-09T21:35:12.997Z,14.43
2023-01-09T21:37:39.660Z,11.82
2023-01-09T21:40:12.837Z,10.55
2023-01-09T21:42:58.203Z,10.80
2023-01-09T21:45:43.365Z,11.57
2023-01-09T21:48:10.076Z,10.43
2023-01-09T21:50:36.704Z,10.88
2023-01-09T21:53:03.491Z,9.98
2023-01-09T21:55:32.153Z,11.60
2023-01-09T21:58:01.144Z,11.00
2023-01-09T22:00:28.051Z,9.38
2023-01-09T22:02:55.048Z,10.38
2023-01-09T22:05:21.870Z,10.07
2023-01-09T22:07:48.580Z,11.48
2023-01-09T22:10:15.464Z,10.32
2023-01-09T22:13:02.099Z,9.25
2023-01-09T22:15:28.729Z,9.57
2023-01-09T22:17:55.458Z,8.77
2023-01-09T22:20:22.143Z,9.50
2023-01-09T22:22:49.492Z,9.75
2023-01-09T22:25:16.529Z,10.43
2023-01-09T22:27:43.878Z,10.73
2023-01-09T22:30:11.448Z,11.13
2023-01-09T22:32:38.086Z,11.05
2023-01-09T22:35:05.160Z,10.05
2023-01-09T22:37:31.866Z,10.88
2023-01-09T22:39:58.520Z,11.45
2023-01-09T22:42:25.128Z,11.70
2023-01-09T22:44:51.807Z,10.95
2023-01-09T22:47:18.377Z,11.18
2023-01-09T22:49:52.624Z,10.63
2023-01-09T22:52:19.995Z,10.38
2023-01-09T22:54:47.091Z,11.35
2023-01-09T22:57:13.656Z,10.70
2023-01-09T22:59:40.420Z,11.68
2023-01-09T23:02:07.170Z,11.30
2023-01-09T23:04:33.925Z,10.55
2023-01-09T23:07:00.671Z,11.25
2023-01-09T23:09:27.327Z,12.02
2023-01-09T23:12:03.384Z,10.60
2023-01-09T23:14:31.879Z,10.25
2023-01-09T23:16:58.648Z,9.98
2023-01-09T23:19:25.560Z,10.65
2023-01-09T23:21:52.272Z,11.65
2023-01-09T23:24:19.015Z,11.80
2023-01-09T23:26:46.454Z,12.32
2023-01-09T23:29:13.344Z,12.23
2023-01-09T23:31:40.084Z,12.20
2023-01-09T23:34:08.290Z,12.10
2023-01-09T23:36:35.738Z,13.15
2023-01-09T23:39:04.257Z,12.40
2023-01-09T23:41:49.529Z,11.60
2023-01-09T23:44:16.342Z,11.10
2023-01-09T23:46:42.942Z,11.73
2023-01-09T23:49:10.414Z,11.85
2023-01-09T23:51:37.043Z,12.48
2023-01-09T23:54:03.824Z,11.98
2023-01-09T23:56:31.299Z,13.02
2023-01-09T23:58:58.008Z,10.15
